createdAt,value
2022-11-05T00:01:44.707Z,100989.81
2022-11-05T00:04:31.232Z,100983.31
2022-11-05T00:07:19.115Z,100985.38
2022-11-05T00:09:46.654Z,100983.44
2022-11-05T00:12:32.219Z,100990.09
2022-11-05T00:15:17.438Z,100994.50
2022-11-05T00:17:44.021Z,100996.59
2022-11-05T00:20:11.275Z,100994.50
2022-11-05T00:22:56.139Z,100997.88
2022-11-05T00:25:22.580Z,101002.72
2022-11-05T00:27:50.620Z,101014.66
2022-11-05T00:30:24.811Z,101018.38
2022-11-05T00:32:51.779Z,101020.78
2022-11-05T00:35:19.423Z,101022.41
2022-11-05T00:37:50.044Z,101021.41
2022-11-05T00:40:17.094Z,101033.47
2022-11-05T00:43:01.881Z,101029.09
2022-11-05T00:45:29.157Z,101036.69
2022-11-05T00:48:13.993Z,101042.88
2022-11-05T00:50:40.365Z,101045.84
2022-11-05T00:53:07.147Z,101043.19
2022-11-05T00:55:33.541Z,101043.81
2022-11-05T00:58:00.404Z,101050.19
2022-11-05T01:00:28.762Z,101048.91
2022-11-05T01:02:59.446Z,101047.38
2022-11-05T01:05:25.926Z,101052.59
2022-11-05T01:07:53.185Z,101051.75
2022-11-05T01:10:19.759Z,101048.81
2022-11-05T01:12:46.133Z,101049.41
2022-11-05T01:15:12.571Z,101047.47
2022-11-05T01:17:38.914Z,101055.13
2022-11-05T01:20:05.514Z,101055.94
2022-11-05T01:22:32.196Z,101056.69
2022-11-05T01:24:58.563Z,101069.06
2022-11-05T01:27:24.959Z,101067.44
2022-11-05T01:29:51.342Z,101076.69
2022-11-05T01:32:17.685Z,101083.66
2022-11-05T01:34:44.074Z,101075.78
2022-11-05T01:37:10.419Z,101088.63
2022-11-05T01:39:36.850Z,101090.16
2022-11-05T01:42:03.254Z,101087.16
2022-11-05T01:44:49.151Z,101089.38
2022-11-05T01:47:41.775Z,101091.56
2022-11-05T01:50:31.535Z,101103.75
2022-11-05T01:53:02.650Z,101101.31
2022-11-05T01:55:30.884Z,101107.63
2022-11-05T01:57:58.703Z,101101.44
2022-11-05T02:00:25.147Z,101106.06
2022-11-05T02:02:51.734Z,101107.19
2022-11-05T02:05:18.271Z,101105.97
2022-11-05T02:07:45.367Z,101098.72
2022-11-05T02:10:17.873Z,101106.41
2022-11-05T02:12:45.535Z,101107.22
2022-11-05T02:15:13.340Z,101106.41
2022-11-05T02:18:15.406Z,101110.25
2022-11-05T02:20:52.226Z,101105.88
2022-11-05T02:23:37.023Z,101112.72
2022-11-05T02:26:18.667Z,101115.34
2022-11-05T02:28:51.180Z,101120.16
2022-11-05T02:31:17.503Z,101120.97
2022-11-05T02:33:56.465Z,101121.53
2022-11-05T02:36:41.735Z,101125.38
2022-11-05T02:39:16.074Z,101130.34
2022-11-05T02:41:45.417Z,101124.84
2022-11-05T02:44:50.502Z,101133.09
2022-11-05T02:47:18.295Z,101131.44
2022-11-05T02:49:50.627Z,101132.13
2022-11-05T02:52:23.190Z,101122.97
2022-11-05T02:54:55.574Z,101118.81
2022-11-05T02:57:22.567Z,101115.69
2022-11-05T02:59:48.992Z,101119.25
2022-11-05T03:02:15.548Z,101120.09
2022-11-05T03:04:42.051Z,101120.09
2022-11-05T03:07:31.032Z,101118.81
2022-11-05T03:10:00.547Z,101111.59
2022-11-05T03:12:32.286Z,101116.13
2022-11-05T03:15:01.427Z,101111.75
2022-11-05T03:17:37.181Z,101114.50
2022-11-05T03:20:22.591Z,101126.16
2022-11-05T03:22:56.036Z,101122.88
2022-11-05T03:25:24.583Z,101119.59
2022-11-05T03:27:54.414Z,101113.72
2022-11-05T03:30:20.870Z,101110.31
2022-11-05T03:32:53.499Z,101114.97
2022-11-05T03:35:19.921Z,101114.56
2022-11-05T03:37:48.981Z,101116.38
2022-11-05T03:40:16.272Z,101138.31
2022-11-05T03:42:46.055Z,101128.88
2022-11-05T03:45:18.996Z,101129.97
2022-11-05T03:47:47.571Z,101126.53
2022-11-05T03:50:27.359Z,101128.31
2022-11-05T03:52:59.093Z,101132.03
2022-11-05T03:55:28.457Z,101128.63
2022-11-05T03:57:55.759Z,101130.69
2022-11-05T04:00:22.603Z,101144.81
2022-11-05T04:02:49.109Z,101148.22
2022-11-05T04:05:15.657Z,101144.66
2022-11-05T04:08:01.320Z,101149.63
2022-11-05T04:10:46.478Z,101149.31
2022-11-05T04:13:24.768Z,101154.81
2022-11-05T04:16:10.529Z,101162.09
2022-11-05T04:18:36.909Z,101170.59
2022-11-05T04:21:22.539Z,101170.47
2022-11-05T04:24:07.435Z,101174.56
2022-11-05T04:26:34.268Z,101165.41
2022-11-05T04:29:19.127Z,101175.00
2022-11-05T04:31:45.495Z,101167.75
2022-11-05T04:34:11.928Z,101176.53
2022-11-05T04:36:38.300Z,101180.59
2022-11-05T04:39:04.702Z,101180.22
2022-11-05T04:41:31.141Z,101179.38
2022-11-05T04:43:57.570Z,101174.59
2022-11-05T04:46:23.971Z,101173.78
2022-11-05T04:48:50.344Z,101178.16
2022-11-05T04:51:16.838Z,101177.66
2022-11-05T04:53:43.266Z,101181.34
2022-11-05T04:56:10.785Z,101177.25
2022-11-05T04:58:41.159Z,101183.66
2022-11-05T05:01:11.393Z,101182.84
2022-11-05T05:03:37.809Z,101179.44
2022-11-05T05:06:04.352Z,101185.88
2022-11-05T05:08:30.769Z,101183.97
2022-11-05T05:11:00.586Z,101184.91
2022-11-05T05:13:27.045Z,101194.38
2022-11-05T05:15:53.477Z,101193.00
2022-11-05T05:18:20.173Z,101198.03
2022-11-05T05:21:05.138Z,101196.66
2022-11-05T05:23:31.631Z,101194.38
2022-11-05T05:26:01.295Z,101195.31
2022-11-05T05:28:28.076Z,101190.94
2022-11-05T05:30:58.873Z,101186.97
2022-11-05T05:33:25.558Z,101192.72
2022-11-05T05:35:52.000Z,101193.97
2022-11-05T05:38:18.450Z,101193.00
2022-11-05T05:40:44.988Z,101191.63
2022-11-05T05:43:11.601Z,101203.97
2022-11-05T05:45:39.195Z,101209.16
2022-11-05T05:48:05.670Z,101206.00
2022-11-05T05:50:32.060Z,101202.44
2022-11-05T05:53:06.580Z,101214.75
2022-11-05T05:55:33.014Z,101206.56
2022-11-05T05:57:59.454Z,101215.56
2022-11-05T06:00:25.968Z,101214.75
2022-11-05T06:02:52.442Z,101221.03
2022-11-05T06:05:18.973Z,101214.06
2022-11-05T06:07:45.377Z,101218.03
2022-11-05T06:10:11.843Z,101228.16
2022-11-05T06:12:38.295Z,101228.00
2022-11-05T06:15:04.948Z,101233.47
2022-11-05T06:17:32.599Z,101234.97
2022-11-05T06:19:58.973Z,101234.41
2022-11-05T06:22:25.423Z,101239.19
2022-11-05T06:24:51.851Z,101232.22
2022-11-05T06:27:18.284Z,101236.59
2022-11-05T06:29:44.703Z,101233.03
2022-11-05T06:32:11.075Z,101246.16
2022-11-05T06:34:37.498Z,101241.38
2022-11-05T06:37:04.019Z,101247.13
2022-11-05T06:39:30.407Z,101260.38
2022-11-05T06:42:17.443Z,101259.84
2022-11-05T06:44:43.196Z,101268.59
2022-11-05T06:47:09.624Z,101272.97
2022-11-05T06:49:36.063Z,101273.06
2022-11-05T06:52:02.535Z,101290.31
2022-11-05T06:54:29.031Z,101281.00
2022-11-05T06:56:55.477Z,101282.53
2022-11-05T06:59:21.959Z,101291.78
2022-11-05T07:01:48.472Z,101293.56
2022-11-05T07:04:15.070Z,101284.94
2022-11-05T07:06:41.508Z,101297.78
2022-11-05T07:09:07.930Z,101295.09
2022-11-05T07:11:34.380Z,101284.28
2022-11-05T07:14:01.203Z,101297.78
2022-11-05T07:16:27.636Z,101297.78
2022-11-05T07:18:55.863Z,101295.47
2022-11-05T07:21:22.402Z,101304.53
2022-11-05T07:23:48.899Z,101301.69
2022-11-05T07:26:15.369Z,101309.38
2022-11-05T07:28:41.911Z,101301.69
2022-11-05T07:31:08.406Z,101316.81
2022-11-05T07:33:36.709Z,101313.72
2022-11-05T07:36:03.513Z,101318.03
2022-11-05T07:38:30.651Z,101328.63
2022-11-05T07:40:59.335Z,101318.53
2022-11-05T07:43:25.870Z,101326.75
2022-11-05T07:45:52.316Z,101325.06
2022-11-05T07:48:18.750Z,101339.09
2022-11-05T07:50:45.173Z,101334.16
2022-11-05T07:53:13.339Z,101330.06
2022-11-05T07:55:40.790Z,101333.47
2022-11-05T07:58:07.483Z,101339.63
2022-11-05T08:00:34.176Z,101329.41
2022-11-05T08:03:08.912Z,101328.44
2022-11-05T08:05:36.967Z,101331.75
2022-11-05T08:08:03.832Z,101327.13
2022-11-05T08:10:30.270Z,101323.75
2022-11-05T08:12:56.978Z,101329.41
2022-11-05T08:15:23.830Z,101330.06
2022-11-05T08:17:50.721Z,101330.53
2022-11-05T08:20:17.199Z,101331.03
2022-11-05T08:22:46.761Z,101334.47
2022-11-05T08:25:13.239Z,101336.81
2022-11-05T08:27:40.325Z,101345.16
2022-11-05T08:30:07.462Z,101340.59
2022-11-05T08:32:34.108Z,101350.69
2022-11-05T08:35:00.593Z,101340.06
2022-11-05T08:37:27.004Z,101352.97
2022-11-05T08:39:53.423Z,101348.69
2022-11-05T08:42:19.840Z,101349.25
2022-11-05T08:44:46.254Z,101348.16
2022-11-05T08:47:12.796Z,101353.06
2022-11-05T08:49:39.227Z,101355.66
2022-11-05T08:52:05.755Z,101351.47
2022-11-05T08:54:32.191Z,101351.19
2022-11-05T08:56:58.667Z,101359.09
2022-11-05T08:59:25.066Z,101361.00
2022-11-05T09:01:51.668Z,101355.88
2022-11-05T09:04:18.169Z,101355.72
2022-11-05T09:06:44.928Z,101358.59
2022-11-05T09:09:11.411Z,101363.28
2022-11-05T09:12:05.693Z,101364.81
2022-11-05T09:14:26.965Z,101356.88
2022-11-05T09:16:53.631Z,101358.16
2022-11-05T09:19:23.261Z,101365.94
2022-11-05T09:21:49.658Z,101363.22
2022-11-05T09:24:16.149Z,101357.31
2022-11-05T09:26:42.564Z,101365.97
2022-11-05T09:29:14.078Z,101364.19
2022-11-05T09:31:40.831Z,101362.00
2022-11-05T09:34:07.216Z,101359.25
2022-11-05T09:36:33.562Z,101359.13
2022-11-05T09:39:00.005Z,101365.72
2022-11-05T09:41:32.541Z,101365.72
2022-11-05T09:44:19.467Z,101368.03
2022-11-05T09:46:55.831Z,101371.31
2022-11-05T09:49:22.195Z,101365.84
2022-11-05T09:51:48.688Z,101370.91
2022-11-05T09:54:15.447Z,101365.00
2022-11-05T09:56:42.152Z,101365.31
2022-11-05T09:59:16.467Z,101364.75
2022-11-05T10:01:43.458Z,101370.34
2022-11-05T10:04:14.604Z,101375.16
2022-11-05T10:06:45.858Z,101368.69
2022-11-05T10:09:15.868Z,101369.09
2022-11-05T10:11:45.732Z,101367.41
2022-11-05T10:14:18.250Z,101365.63
2022-11-05T10:16:48.567Z,101370.56
2022-11-05T10:19:24.534Z,101374.22
2022-11-05T10:22:10.180Z,101379.56
2022-11-05T10:24:37.113Z,101372.75
2022-11-05T10:27:05.194Z,101378.75
2022-11-05T10:29:33.306Z,101378.97
2022-11-05T10:32:01.148Z,101377.31
2022-11-05T10:34:30.961Z,101379.66
2022-11-05T10:36:57.613Z,101376.03
2022-11-05T10:39:24.831Z,101379.91
2022-11-05T10:41:52.609Z,101381.50
2022-11-05T10:44:25.056Z,101381.94
2022-11-05T10:47:10.195Z,101392.56
2022-11-05T10:49:53.332Z,101383.97
2022-11-05T10:52:19.831Z,101390.75
2022-11-05T10:54:47.137Z,101392.94
2022-11-05T10:57:39.857Z,101391.22
2022-11-05T11:00:15.567Z,101387.63
2022-11-05T11:03:11.206Z,101380.75
2022-11-05T11:05:38.949Z,101379.09
2022-11-05T11:08:05.342Z,101383.06
2022-11-05T11:10:34.507Z,101391.03
2022-11-05T11:13:00.931Z,101378.00
2022-11-05T11:15:28.848Z,101381.78
2022-11-05T11:17:56.255Z,101374.19
2022-11-05T11:20:22.753Z,101391.25
2022-11-05T11:23:07.626Z,101383.06
2022-11-05T11:25:54.306Z,101388.13
2022-11-05T11:28:26.379Z,101389.66
2022-11-05T11:31:07.308Z,101388.13
2022-11-05T11:33:34.088Z,101388.69
2022-11-05T11:36:00.835Z,101388.47
2022-11-05T11:38:31.397Z,101385.72
2022-11-05T11:41:03.581Z,101387.06
2022-11-05T11:43:32.997Z,101392.13
2022-11-05T11:46:05.053Z,101402.47
2022-11-05T11:48:35.243Z,101388.63
2022-11-05T11:51:16.801Z,101398.28
2022-11-05T11:53:43.230Z,101392.69
2022-11-05T11:56:19.822Z,101394.94
2022-11-05T11:58:46.288Z,101400.44
2022-11-05T12:01:21.855Z,101391.53
2022-11-05T12:03:54.257Z,101390.31
2022-11-05T12:06:20.583Z,101393.91
2022-11-05T12:09:03.445Z,101385.00
2022-11-05T12:11:38.539Z,101397.09
2022-11-05T12:14:23.727Z,101397.22
2022-11-05T12:16:53.242Z,101394.41
2022-11-05T12:19:38.064Z,101383.41
2022-11-05T12:22:13.251Z,101382.81
2022-11-05T12:24:39.585Z,101386.47
2022-11-05T12:27:06.064Z,101391.53
2022-11-05T12:29:58.677Z,101387.22
2022-11-05T12:32:33.298Z,101391.06
2022-11-05T12:35:26.837Z,101385.16
2022-11-05T12:38:11.943Z,101380.28
2022-11-05T12:40:38.306Z,101384.72
2022-11-05T12:43:12.088Z,101375.59
2022-11-05T12:45:50.837Z,101379.81
2022-11-05T12:48:36.933Z,101381.31
2022-11-05T12:51:03.698Z,101372.81
2022-11-05T12:53:36.199Z,101366.31
2022-11-05T12:56:07.286Z,101367.66
2022-11-05T12:58:42.885Z,101360.84
2022-11-05T13:01:31.841Z,101357.28
2022-11-05T13:04:01.140Z,101347.56
2022-11-05T13:06:31.667Z,101347.56
2022-11-05T13:09:03.207Z,101350.13
2022-11-05T13:11:33.353Z,101344.63
2022-11-05T13:14:05.856Z,101362.50
2022-11-05T13:16:35.905Z,101361.50
2022-11-05T13:19:15.377Z,101359.84
2022-11-05T13:21:43.866Z,101362.69
2022-11-05T13:24:17.217Z,101364.34
2022-11-05T13:26:47.496Z,101356.13
2022-11-05T13:29:20.198Z,101355.13
2022-11-05T13:31:57.725Z,101351.28
2022-11-05T13:34:24.093Z,101339.38
2022-11-05T13:37:17.369Z,101335.56
2022-11-05T13:39:54.684Z,101335.75
2022-11-05T13:42:30.224Z,101333.31
2022-11-05T13:45:11.923Z,101322.63
2022-11-05T13:47:38.354Z,101325.31
2022-11-05T13:50:13.998Z,101326.47
2022-11-05T13:52:59.330Z,101314.22
2022-11-05T13:55:28.510Z,101317.97
2022-11-05T13:58:00.958Z,101314.72
2022-11-05T14:00:29.100Z,101319.41
2022-11-05T14:03:04.554Z,101319.09
2022-11-05T14:05:33.314Z,101321.28
2022-11-05T14:08:00.906Z,101314.81
2022-11-05T14:10:30.081Z,101315.06
2022-11-05T14:12:58.366Z,101309.25
2022-11-05T14:15:26.927Z,101310.25
2022-11-05T14:18:00.723Z,101307.47
2022-11-05T14:20:27.162Z,101311.16
2022-11-05T14:22:53.696Z,101309.28
2022-11-05T14:25:20.114Z,101296.81
2022-11-05T14:27:47.813Z,101293.78
2022-11-05T14:30:37.206Z,101290.66
2022-11-05T14:33:24.702Z,101290.50
2022-11-05T14:35:51.706Z,101283.28
2022-11-05T14:38:20.208Z,101288.75
2022-11-05T14:40:47.414Z,101291.06
2022-11-05T14:43:14.130Z,101290.34
2022-11-05T14:45:51.388Z,101293.22
2022-11-05T14:48:23.846Z,101289.94
2022-11-05T14:50:50.684Z,101297.91
2022-11-05T14:53:34.233Z,101297.25
2022-11-05T14:56:00.988Z,101292.94
2022-11-05T14:58:29.052Z,101293.84
2022-11-05T15:00:56.328Z,101297.25
2022-11-05T15:03:28.858Z,101292.22
2022-11-05T15:06:13.875Z,101289.03
2022-11-05T15:08:49.622Z,101297.44
2022-11-05T15:11:19.840Z,101298.69
2022-11-05T15:13:58.055Z,101294.09
2022-11-05T15:16:41.926Z,101300.50
2022-11-05T15:19:23.062Z,101298.59
2022-11-05T15:21:49.742Z,101293.13
2022-11-05T15:24:17.778Z,101287.88
2022-11-05T15:26:55.935Z,101278.81
2022-11-05T15:29:25.653Z,101293.69
2022-11-05T15:31:53.010Z,101281.84
2022-11-05T15:34:21.580Z,101281.41
2022-11-05T15:36:57.018Z,101284.06
2022-11-05T15:39:38.030Z,101276.84
2022-11-05T15:42:06.079Z,101274.94
2022-11-05T15:44:39.213Z,101280.56
2022-11-05T15:47:14.667Z,101291.50
2022-11-05T15:49:46.125Z,101286.72
2022-11-05T15:52:14.479Z,101290.16
2022-11-05T15:54:41.229Z,101297.56
2022-11-05T15:57:17.403Z,101303.88
2022-11-05T15:59:45.886Z,101296.19
2022-11-05T16:02:40.189Z,101298.75
2022-11-05T16:05:11.738Z,101293.94
2022-11-05T16:07:41.634Z,101287.25
2022-11-05T16:10:17.821Z,101295.09
2022-11-05T16:12:44.336Z,101301.28
2022-11-05T16:15:10.684Z,101286.06
2022-11-05T16:17:40.107Z,101285.66
2022-11-05T16:20:24.288Z,101291.78
2022-11-05T16:22:55.295Z,101297.31
2022-11-05T16:25:21.829Z,101302.91
2022-11-05T16:27:48.517Z,101295.31
2022-11-05T16:30:19.526Z,101290.75
2022-11-05T16:32:46.511Z,101298.06
2022-11-05T16:35:18.881Z,101293.22
2022-11-05T16:37:51.656Z,101300.28
2022-11-05T16:40:23.711Z,101299.94
2022-11-05T16:42:51.700Z,101304.72
2022-11-05T16:45:24.873Z,101301.66
2022-11-05T16:47:51.432Z,101300.53
2022-11-05T16:50:20.714Z,101306.34
2022-11-05T16:52:47.309Z,101304.50
2022-11-05T16:55:14.505Z,101306.56
2022-11-05T16:57:42.304Z,101304.84
2022-11-05T17:00:11.222Z,101301.19
2022-11-05T17:02:37.780Z,101303.59
2022-11-05T17:05:06.687Z,101297.56
2022-11-05T17:07:37.150Z,101307.31
2022-11-05T17:10:06.762Z,101304.72
2022-11-05T17:12:34.077Z,101308.81
2022-11-05T17:15:00.450Z,101306.88
2022-11-05T17:17:26.868Z,101298.75
2022-11-05T17:19:53.248Z,101298.75
2022-11-05T17:22:19.645Z,101291.72
2022-11-05T17:24:45.989Z,101292.69
2022-11-05T17:27:12.398Z,101288.16
2022-11-05T17:29:38.758Z,101280.25
2022-11-05T17:32:05.700Z,101289.88
2022-11-05T17:34:32.059Z,101298.56
2022-11-05T17:36:58.512Z,101292.00
2022-11-05T17:39:31.276Z,101293.56
2022-11-05T17:41:58.185Z,101295.44
2022-11-05T17:44:24.557Z,101296.34
2022-11-05T17:46:51.151Z,101299.09
2022-11-05T17:49:17.489Z,101304.84
2022-11-05T17:51:43.916Z,101308.88
2022-11-05T17:54:11.375Z,101313.03
2022-11-05T17:56:44.413Z,101313.69
2022-11-05T17:59:11.282Z,101312.81
2022-11-05T18:01:43.163Z,101313.50
2022-11-05T18:04:10.343Z,101307.75
2022-11-05T18:06:37.647Z,101312.34
2022-11-05T18:09:05.220Z,101314.09
2022-11-05T18:11:32.567Z,101315.59
2022-11-05T18:13:59.033Z,101315.72
2022-11-05T18:16:25.428Z,101314.72
2022-11-05T18:18:52.117Z,101316.53
2022-11-05T18:21:18.492Z,101321.63
2022-11-05T18:23:45.070Z,101322.81
2022-11-05T18:26:12.236Z,101317.56
2022-11-05T18:28:38.654Z,101318.47
2022-11-05T18:31:08.259Z,101319.84
2022-11-05T18:33:35.077Z,101325.41
2022-11-05T18:36:01.718Z,101317.66
2022-11-05T18:38:28.184Z,101314.97
2022-11-05T18:40:54.581Z,101314.41
2022-11-05T18:43:20.949Z,101313.03
2022-11-05T18:45:54.311Z,101311.97
2022-11-05T18:48:20.737Z,101308.97
2022-11-05T18:50:47.195Z,101299.06
2022-11-05T18:53:13.875Z,101301.06
2022-11-05T18:55:40.459Z,101299.69
2022-11-05T18:58:06.862Z,101309.66
2022-11-05T19:00:33.389Z,101309.31
2022-11-05T19:03:00.032Z,101301.44
2022-11-05T19:05:30.535Z,101307.44
2022-11-05T19:07:57.255Z,101308.16
2022-11-05T19:10:23.856Z,101307.81
2022-11-05T19:12:50.414Z,101308.06
2022-11-05T19:15:17.160Z,101301.66
2022-11-05T19:17:43.983Z,101313.47
2022-11-05T19:20:10.547Z,101307.75
2022-11-05T19:22:36.895Z,101308.56
2022-11-05T19:25:03.946Z,101304.16
2022-11-05T19:27:30.315Z,101309.06
2022-11-05T19:29:56.752Z,101307.34
2022-11-05T19:32:23.894Z,101311.41
2022-11-05T19:34:50.287Z,101311.59
2022-11-05T19:37:16.684Z,101316.72
2022-11-05T19:39:43.808Z,101302.69
2022-11-05T19:42:10.137Z,101299.34
2022-11-05T19:44:36.587Z,101308.09
2022-11-05T19:47:02.988Z,101308.28
2022-11-05T19:49:29.355Z,101305.41
2022-11-05T19:51:55.765Z,101295.44
2022-11-05T19:54:22.185Z,101304.28
2022-11-05T19:56:49.499Z,101301.25
2022-11-05T19:59:15.891Z,101297.50
2022-11-05T20:01:42.342Z,101301.25
2022-11-05T20:04:09.522Z,101298.38
2022-11-05T20:06:38.600Z,101303.84
2022-11-05T20:09:20.936Z,101312.50
2022-11-05T20:11:49.705Z,101320.41
2022-11-05T20:14:16.065Z,101326.88
2022-11-05T20:16:45.098Z,101327.34
2022-11-05T20:19:14.847Z,101326.88
2022-11-05T20:21:41.413Z,101319.72
2022-11-05T20:24:08.133Z,101313.41
2022-11-05T20:26:34.699Z,101318.06
2022-11-05T20:29:01.171Z,101308.63
2022-11-05T20:31:27.664Z,101309.97
2022-11-05T20:33:54.434Z,101300.75
2022-11-05T20:36:24.533Z,101297.22
2022-11-05T20:38:52.440Z,101299.94
2022-11-05T20:41:18.998Z,101312.06
2022-11-05T20:43:46.696Z,101300.94
2022-11-05T20:46:15.482Z,101306.28
2022-11-05T20:48:42.230Z,101303.91
2022-11-05T20:51:19.319Z,101310.13
2022-11-05T20:53:46.310Z,101318.88
2022-11-05T20:56:16.944Z,101309.31
2022-11-05T20:58:43.884Z,101303.75
2022-11-05T21:01:11.476Z,101308.28
2022-11-05T21:03:37.878Z,101319.78
2022-11-05T21:06:05.669Z,101324.38
2022-11-05T21:08:32.791Z,101326.16
2022-11-05T21:10:59.548Z,101327.47
2022-11-05T21:13:27.764Z,101322.66
2022-11-05T21:15:55.437Z,101327.59
2022-11-05T21:18:24.219Z,101324.03
2022-11-05T21:20:50.688Z,101323.44
2022-11-05T21:23:17.478Z,101316.72
2022-11-05T21:25:44.206Z,101319.47
2022-11-05T21:28:11.628Z,101320.28
2022-11-05T21:30:41.397Z,101328.41
2022-11-05T21:33:08.455Z,101327.44
2022-11-05T21:35:38.353Z,101315.69
2022-11-05T21:38:04.728Z,101300.13
2022-11-05T21:40:31.255Z,101280.88
2022-11-05T21:42:57.707Z,101275.78
2022-11-05T21:45:24.149Z,101272.19
2022-11-05T21:47:50.514Z,101273.56
2022-11-05T21:50:21.611Z,101273.25
2022-11-05T21:53:07.193Z,101285.81
2022-11-05T21:55:51.961Z,101290.50
2022-11-05T21:58:36.807Z,101283.66
2022-11-05T22:01:03.277Z,101293.50
2022-11-05T22:03:29.674Z,101293.50
2022-11-05T22:05:56.494Z,101295.69
2022-11-05T22:08:22.875Z,101295.41
2022-11-05T22:10:49.227Z,101285.69
2022-11-05T22:13:15.593Z,101273.75
2022-11-05T22:15:41.950Z,101279.94
2022-11-05T22:18:08.384Z,101276.41
2022-11-05T22:20:37.288Z,101275.63
2022-11-05T22:23:07.329Z,101267.22
2022-11-05T22:25:36.668Z,101272.03
2022-11-05T22:28:03.087Z,101274.22
2022-11-05T22:30:29.548Z,101270.38
2022-11-05T22:32:55.944Z,101251.53
2022-11-05T22:35:22.356Z,101250.63
2022-11-05T22:37:48.806Z,101252.31
2022-11-05T22:40:15.204Z,101245.06
2022-11-05T22:42:41.631Z,101230.03
2022-11-05T22:45:08.377Z,101235.22
2022-11-05T22:47:34.772Z,101230.31
2022-11-05T22:50:01.394Z,101216.09
2022-11-05T22:52:27.967Z,101217.47
2022-11-05T22:54:54.379Z,101216.91
2022-11-05T22:57:20.825Z,101220.03
2022-11-05T22:59:47.457Z,101213.06
2022-11-05T23:02:14.064Z,101217.47
2022-11-05T23:04:40.564Z,101210.28
2022-11-05T23:07:33.258Z,101224.84
2022-11-05T23:10:18.322Z,101230.88
2022-11-05T23:12:44.882Z,101227.88
2022-11-05T23:15:31.268Z,101228.09
2022-11-05T23:18:16.394Z,101221.81
2022-11-05T23:21:03.034Z,101215.44
2022-11-05T23:23:47.965Z,101218.66
2022-11-05T23:26:32.814Z,101220.63
2022-11-05T23:28:59.160Z,101221.56
2022-11-05T23:31:43.972Z,101216.78
2022-11-05T23:34:10.329Z,101205.31
2022-11-05T23:36:55.129Z,101209.81
2022-11-05T23:39:21.481Z,101204.63
2022-11-05T23:42:06.371Z,101206.50
2022-11-05T23:44:51.271Z,101202.84
2022-11-05T23:47:35.954Z,101199.69
2022-11-05T23:50:02.303Z,101201.00
2022-11-05T23:52:28.704Z,101205.28
2022-11-05T23:54:55.069Z,101202.69
2022-11-05T23:57:21.423Z,101195.28
2022-11-05T23:59:47.766Z,101195.56
